Xin Dan Dong — BPBY — position and weather

sailwx.info

Track history (hours):
 
Tides and Currents Weather Stations Pressure Air Temp Water Temp Dewpoint Dewpoint Depression Visibility Wind Speed Wind Dir Waves Ship Positions

Xin Dan Dong

Last reported at 2015-Feb-24 10:33 UTC. Time now 2015-Mar-01 15:02 UTC.
Position N 22°05' E 114°31'.

Length 263 m; draft 10.3 m.

Type: Ship (hazmat cat A). MMSI: 413153000.

Date/timePositionNaut miles runAvg speedWind from/ knotsBaromVisibWave heightAir tempDewpointWater temp
2015-Feb-24 10:33N 22°05' E 114°31'1615.4
2015-Feb-24 09:30N 22°08' E 114°14'1110.7
2015-Feb-24 08:29N 22°16' E 114°06'4 3.6
2015-Feb-24 07:28N 22°20' E 114°08'0 0.0
2015-Feb-24 06:31N 22°20' E 114°08'0 0.0
2015-Feb-24 05:28N 22°20' E 114°08'0 0.0
2015-Feb-24 04:29N 22°20' E 114°08'0 0.0
2015-Feb-24 03:28N 22°20' E 114°08'0 0.0
2015-Feb-24 02:29N 22°20' E 114°08'0 0.0
2015-Feb-24 01:32N 22°20' E 114°08'0 0.0
2015-Feb-24 00:32N 22°20' E 114°08'0 0.0
2015-Feb-23 23:29N 22°20' E 114°08'0 0.0
2015-Feb-23 22:32N 22°20' E 114°08'0 0.0
2015-Feb-23 21:29N 22°20' E 114°08'0 0.0
2015-Feb-23 20:32N 22°20' E 114°08'0 0.0
2015-Feb-23 19:32N 22°20' E 114°08'0 0.0
2015-Feb-23 18:32N 22°20' E 114°08'0 0.0
2015-Feb-23 17:32N 22°20' E 114°08'0 0.0
2015-Feb-23 16:32N 22°20' E 114°08'0 0.0
2015-Feb-23 15:32N 22°20' E 114°08'2 2.5
2015-Feb-23 14:33N 22°19' E 114°05'1 0.6
2015-Feb-23 13:33N 22°19' E 114°05'2 2.2
2015-Feb-23 12:30N 22°21' E 114°04'1010.7
2015-Feb-23 11:34N 22°24' E 113°53'4 3.3
2015-Feb-23 10:30N 22°27' E 113°54'0 0.0
2015-Feb-23 09:30N 22°27' E 113°54'0 0.0
2015-Feb-23 08:18N 22°27' E 113°54'0 0.0
2015-Feb-23 07:30N 22°27' E 113°54'0 0.0
2015-Feb-23 06:30N 22°27' E 113°54'0 0.0
2015-Feb-23 05:24N 22°27' E 113°54'0 0.0
2015-Feb-23 04:24N 22°27' E 113°54'0 0.0
2015-Feb-23 03:12N 22°27' E 113°54'0 0.0
2015-Feb-23 02:12N 22°27' E 113°54'0 0.0
2015-Feb-23 01:25N 22°27' E 113°54'3 3.2
2015-Feb-23 00:33N 22°24' E 113°54'8 7.2
2015-Feb-22 23:24N 22°21' E 114°02'1011.6
2015-Feb-22 22:30N 22°13' E 114°09'7 7.3
2015-Feb-22 21:34N 22°09' E 114°15'8 7.8
2015-Feb-22 20:33N 22°09' E 114°23'1111.2
2015-Feb-22 19:33N 22°11' E 114°35'5 3.1
2015-Feb-22 18:06N 22°12' E 114°40'208 6.8
2015-Feb-21 11:25N 23°37' E 118°06'1112.9
2015-Feb-21 10:32N 23°45' E 118°15'7414.9
2015-Feb-21 05:33N 24°35' E 119°15'3815.3
2015-Feb-21 03:04N 25°01' E 119°45'816.5
2015-Feb-21 02:33N 25°07' E 119°52'27614.9
2015-Feb-20 08:05N 28°55' E 122°46'8613.0
2015-Feb-20 01:31N 30°17' E 123°12'1210.9
2015-Feb-20 00:26N 30°29' E 123°14'1112.2
2015-Feb-19 23:34N 30°39' E 123°14'1212.2
2015-Feb-19 22:33N 30°51' E 123°11'1413.6
2015-Feb-19 21:32N 30°59' E 122°58'1414.1
2015-Feb-19 20:33N 31°05' E 122°43'1414.4
2015-Feb-19 19:33N 31°05' E 122°26'1313.5
2015-Feb-19 18:34N 31°10' E 122°12'1413.8
2015-Feb-19 17:34N 31°15' E 121°57'1313.4
2015-Feb-19 16:33N 31°20' E 121°42'2 1.9
2015-Feb-19 15:32N 31°20' E 121°40'0 0.0
2015-Feb-19 14:32N 31°20' E 121°40'0 0.0
2015-Feb-19 13:32N 31°20' E 121°40'0 0.0
2015-Feb-19 12:32N 31°20' E 121°40'0 0.0
2015-Feb-19 11:32N 31°20' E 121°40'0 0.0
2015-Feb-19 10:32N 31°20' E 121°40'0 0.0
2015-Feb-19 09:33N 31°20' E 121°40'0 0.1
2015-Feb-19 08:33N 31°20' E 121°40'0 0.1
2015-Feb-19 07:33N 31°20' E 121°40'0 0.0
2015-Feb-19 06:33N 31°20' E 121°40'0 0.0
2015-Feb-19 05:33N 31°20' E 121°40'0 0.0
2015-Feb-19 04:33N 31°20' E 121°40'2 2.2
2015-Feb-19 03:33N 31°20' E 121°42'1111.5
2015-Feb-19 02:33N 31°16' E 121°55'1212.4
2015-Feb-19 01:34N 31°12' E 122°09'1313.0
2015-Feb-19 00:33N 31°06' E 122°22'8 8.4
2015-Feb-18 23:33N 31°06' E 122°32'9 9.4
2015-Feb-18 22:33N 31°08' E 122°43'0 0.0
2015-Feb-18 16:25N 31°08' E 122°43'0 0.0
2015-Feb-18 10:19N 31°08' E 122°43'0 0.1
2015-Feb-18 09:27N 31°08' E 122°43'0 0.0
2015-Feb-18 04:15N 31°08' E 122°43'0 0.1
2015-Feb-18 03:09N 31°08' E 122°43'0 0.0
2015-Feb-18 01:06N 31°08' E 122°43'0 0.0
2015-Feb-18 00:15N 31°08' E 122°43'0 0.0
2015-Feb-17 23:15N 31°08' E 122°43'0 0.0
2015-Feb-17 22:33N 31°08' E 122°43'0 0.1
2015-Feb-17 21:33N 31°08' E 122°43'0 0.1
2015-Feb-17 20:33N 31°08' E 122°43'0 0.1
2015-Feb-17 19:33N 31°08' E 122°43'0 0.0
2015-Feb-17 17:09N 31°08' E 122°43'0 0.1
2015-Feb-17 15:24N 31°08' E 122°43'0 0.1
2015-Feb-17 13:27N 31°08' E 122°43'0 0.1
2015-Feb-17 12:27N 31°08' E 122°43'0 0.1
2015-Feb-17 11:15N 31°08' E 122°43'0 0.1
2015-Feb-17 10:18N 31°08' E 122°43'0 0.1
2015-Feb-17 09:33N 31°08' E 122°43'0 0.0
2015-Feb-17 07:21N 31°08' E 122°43'0 0.0
2015-Feb-17 06:27N 31°08' E 122°43'0 0.1
2015-Feb-17 05:18N 31°08' E 122°43'0 0.1
2015-Feb-17 04:24N 31°08' E 122°43'0 0.1
2015-Feb-17 01:29N 31°08' E 122°43'0 0.1
2015-Feb-17 00:33N 31°08' E 122°43'0 0.1
2015-Feb-16 23:12N 31°08' E 122°43'0 0.1
2015-Feb-16 22:24N 31°08' E 122°43'0 0.0
2015-Feb-16 20:27N 31°08' E 122°43'0 0.0
2015-Feb-16 15:21N 31°08' E 122°43'0 0.1
2015-Feb-16 11:18N 31°08' E 122°43'0 0.0
2015-Feb-16 10:15N 31°08' E 122°43'0 0.0
2015-Feb-15 23:31N 31°08' E 122°43'0 0.0
2015-Feb-15 21:19N 31°08' E 122°43'0 0.1
2015-Feb-15 17:10N 31°08' E 122°43'0 0.1
2015-Feb-15 12:31N 31°09' E 122°43'0 0.1
2015-Feb-15 11:31N 31°09' E 122°43'0 0.1
2015-Feb-15 10:31N 31°09' E 122°43'0 0.0
2015-Feb-15 09:28N 31°09' E 122°43'0 0.0
2015-Feb-15 08:29N 31°09' E 122°43'0 0.0
2015-Feb-15 07:31N 31°09' E 122°43'0 0.1
2015-Feb-15 06:13N 31°09' E 122°43'0 0.1
2015-Feb-15 05:25N 31°09' E 122°43'0 0.0
2015-Feb-15 04:25N 31°09' E 122°43'0 0.1
2015-Feb-15 03:19N 31°09' E 122°43'0 0.0
2015-Feb-15 01:22N 31°09' E 122°43'0 0.0
2015-Feb-14 18:16N 31°08' E 122°43'0 0.0
2015-Feb-14 14:31N 31°09' E 122°43'  
Track history (hours):
 
Tides and Currents Weather Stations Pressure Air Temp Water Temp Dewpoint Dewpoint Depression Visibility Wind Speed Wind Dir Waves Ship Positions

Xin Dan Dong

Last reported at 2015-Feb-24 10:33 UTC. Time now 2015-Mar-01 15:02 UTC.
Position N 22°05' E 114°31'.

Length 263 m; draft 10.3 m.

Type: Ship (hazmat cat A). MMSI: 413153000.

Date/timePositionNaut miles runAvg speedWind from/ knotsBaromVisibWave heightAir tempDewpointWater temp
2015-Feb-24 10:33N 22°05' E 114°31'1615.4
2015-Feb-24 09:30N 22°08' E 114°14'1110.7
2015-Feb-24 08:29N 22°16' E 114°06'4 3.6
2015-Feb-24 07:28N 22°20' E 114°08'0 0.0
2015-Feb-24 06:31N 22°20' E 114°08'0 0.0
2015-Feb-24 05:28N 22°20' E 114°08'0 0.0
2015-Feb-24 04:29N 22°20' E 114°08'0 0.0
2015-Feb-24 03:28N 22°20' E 114°08'0 0.0
2015-Feb-24 02:29N 22°20' E 114°08'0 0.0
2015-Feb-24 01:32N 22°20' E 114°08'0 0.0
2015-Feb-24 00:32N 22°20' E 114°08'0 0.0
2015-Feb-23 23:29N 22°20' E 114°08'0 0.0
2015-Feb-23 22:32N 22°20' E 114°08'0 0.0
2015-Feb-23 21:29N 22°20' E 114°08'0 0.0
2015-Feb-23 20:32N 22°20' E 114°08'0 0.0
2015-Feb-23 19:32N 22°20' E 114°08'0 0.0
2015-Feb-23 18:32N 22°20' E 114°08'0 0.0
2015-Feb-23 17:32N 22°20' E 114°08'0 0.0
2015-Feb-23 16:32N 22°20' E 114°08'0 0.0
2015-Feb-23 15:32N 22°20' E 114°08'2 2.5
2015-Feb-23 14:33N 22°19' E 114°05'1 0.6
2015-Feb-23 13:33N 22°19' E 114°05'2 2.2
2015-Feb-23 12:30N 22°21' E 114°04'1010.7
2015-Feb-23 11:34N 22°24' E 113°53'4 3.3
2015-Feb-23 10:30N 22°27' E 113°54'0 0.0
2015-Feb-23 09:30N 22°27' E 113°54'0 0.0
2015-Feb-23 08:18N 22°27' E 113°54'0 0.0
2015-Feb-23 07:30N 22°27' E 113°54'0 0.0
2015-Feb-23 06:30N 22°27' E 113°54'0 0.0
2015-Feb-23 05:24N 22°27' E 113°54'0 0.0
2015-Feb-23 04:24N 22°27' E 113°54'0 0.0
2015-Feb-23 03:12N 22°27' E 113°54'0 0.0
2015-Feb-23 02:12N 22°27' E 113°54'0 0.0
2015-Feb-23 01:25N 22°27' E 113°54'3 3.2
2015-Feb-23 00:33N 22°24' E 113°54'8 7.2
2015-Feb-22 23:24N 22°21' E 114°02'1011.6
2015-Feb-22 22:30N 22°13' E 114°09'7 7.3
2015-Feb-22 21:34N 22°09' E 114°15'8 7.8
2015-Feb-22 20:33N 22°09' E 114°23'1111.2
2015-Feb-22 19:33N 22°11' E 114°35'5 3.1
2015-Feb-22 18:06N 22°12' E 114°40'208 6.8
2015-Feb-21 11:25N 23°37' E 118°06'1112.9
2015-Feb-21 10:32N 23°45' E 118°15'7414.9
2015-Feb-21 05:33N 24°35' E 119°15'3815.3
2015-Feb-21 03:04N 25°01' E 119°45'816.5
2015-Feb-21 02:33N 25°07' E 119°52'27614.9
2015-Feb-20 08:05N 28°55' E 122°46'8613.0
2015-Feb-20 01:31N 30°17' E 123°12'1210.9
2015-Feb-20 00:26N 30°29' E 123°14'1112.2
2015-Feb-19 23:34N 30°39' E 123°14'1212.2
2015-Feb-19 22:33N 30°51' E 123°11'1413.6
2015-Feb-19 21:32N 30°59' E 122°58'1414.1
2015-Feb-19 20:33N 31°05' E 122°43'1414.4
2015-Feb-19 19:33N 31°05' E 122°26'1313.5
2015-Feb-19 18:34N 31°10' E 122°12'1413.8
2015-Feb-19 17:34N 31°15' E 121°57'1313.4
2015-Feb-19 16:33N 31°20' E 121°42'2 1.9
2015-Feb-19 15:32N 31°20' E 121°40'0 0.0
2015-Feb-19 14:32N 31°20' E 121°40'0 0.0
2015-Feb-19 13:32N 31°20' E 121°40'0 0.0
2015-Feb-19 12:32N 31°20' E 121°40'0 0.0
2015-Feb-19 11:32N 31°20' E 121°40'0 0.0
2015-Feb-19 10:32N 31°20' E 121°40'0 0.0
2015-Feb-19 09:33N 31°20' E 121°40'0 0.1
2015-Feb-19 08:33N 31°20' E 121°40'0 0.1
2015-Feb-19 07:33N 31°20' E 121°40'0 0.0
2015-Feb-19 06:33N 31°20' E 121°40'0 0.0
2015-Feb-19 05:33N 31°20' E 121°40'0 0.0
2015-Feb-19 04:33N 31°20' E 121°40'2 2.2
2015-Feb-19 03:33N 31°20' E 121°42'1111.5
2015-Feb-19 02:33N 31°16' E 121°55'1212.4
2015-Feb-19 01:34N 31°12' E 122°09'1313.0
2015-Feb-19 00:33N 31°06' E 122°22'8 8.4
2015-Feb-18 23:33N 31°06' E 122°32'9 9.4
2015-Feb-18 22:33N 31°08' E 122°43'0 0.0
2015-Feb-18 16:25N 31°08' E 122°43'0 0.0
2015-Feb-18 10:19N 31°08' E 122°43'0 0.1
2015-Feb-18 09:27N 31°08' E 122°43'0 0.0
2015-Feb-18 04:15N 31°08' E 122°43'0 0.1
2015-Feb-18 03:09N 31°08' E 122°43'0 0.0
2015-Feb-18 01:06N 31°08' E 122°43'0 0.0
2015-Feb-18 00:15N 31°08' E 122°43'0 0.0
2015-Feb-17 23:15N 31°08' E 122°43'0 0.0
2015-Feb-17 22:33N 31°08' E 122°43'0 0.1
2015-Feb-17 21:33N 31°08' E 122°43'0 0.1
2015-Feb-17 20:33N 31°08' E 122°43'0 0.1
2015-Feb-17 19:33N 31°08' E 122°43'0 0.0
2015-Feb-17 17:09N 31°08' E 122°43'0 0.1
2015-Feb-17 15:24N 31°08' E 122°43'0 0.1
2015-Feb-17 13:27N 31°08' E 122°43'0 0.1
2015-Feb-17 12:27N 31°08' E 122°43'0 0.1
2015-Feb-17 11:15N 31°08' E 122°43'0 0.1
2015-Feb-17 10:18N 31°08' E 122°43'0 0.1
2015-Feb-17 09:33N 31°08' E 122°43'0 0.0
2015-Feb-17 07:21N 31°08' E 122°43'0 0.0
2015-Feb-17 06:27N 31°08' E 122°43'0 0.1
2015-Feb-17 05:18N 31°08' E 122°43'0 0.1
2015-Feb-17 04:24N 31°08' E 122°43'0 0.1
2015-Feb-17 01:29N 31°08' E 122°43'0 0.1
2015-Feb-17 00:33N 31°08' E 122°43'0 0.1
2015-Feb-16 23:12N 31°08' E 122°43'0 0.1
2015-Feb-16 22:24N 31°08' E 122°43'0 0.0
2015-Feb-16 20:27N 31°08' E 122°43'0 0.0
2015-Feb-16 15:21N 31°08' E 122°43'0 0.1
2015-Feb-16 11:18N 31°08' E 122°43'0 0.0
2015-Feb-16 10:15N 31°08' E 122°43'0 0.0
2015-Feb-15 23:31N 31°08' E 122°43'0 0.0
2015-Feb-15 21:19N 31°08' E 122°43'0 0.1
2015-Feb-15 17:10N 31°08' E 122°43'0 0.1
2015-Feb-15 12:31N 31°09' E 122°43'0 0.1
2015-Feb-15 11:31N 31°09' E 122°43'0 0.1
2015-Feb-15 10:31N 31°09' E 122°43'0 0.0
2015-Feb-15 09:28N 31°09' E 122°43'0 0.0
2015-Feb-15 08:29N 31°09' E 122°43'0 0.0
2015-Feb-15 07:31N 31°09' E 122°43'0 0.1
2015-Feb-15 06:13N 31°09' E 122°43'0 0.1
2015-Feb-15 05:25N 31°09' E 122°43'0 0.0
2015-Feb-15 04:25N 31°09' E 122°43'0 0.1
2015-Feb-15 03:19N 31°09' E 122°43'0 0.0
2015-Feb-15 01:22N 31°09' E 122°43'0 0.0
2015-Feb-14 18:16N 31°08' E 122°43'0 0.0
2015-Feb-14 14:31N 31°09' E 122°43'  

Dump ship's entire track history